createdAt,value
2022-08-05T00:01:19.963Z,28.89
2022-08-05T00:06:27.817Z,28.87
2022-08-05T00:11:35.151Z,28.86
2022-08-05T00:16:53.076Z,28.85
2022-08-05T00:21:55.145Z,28.83
2022-08-05T00:26:56.629Z,28.80
2022-08-05T00:32:12.702Z,28.80
2022-08-05T00:37:16.480Z,28.80
2022-08-05T00:42:32.540Z,28.78
2022-08-05T00:47:56.005Z,28.72
2022-08-05T00:52:55.526Z,28.69
2022-08-05T00:57:59.087Z,28.66
2022-08-05T01:03:00.743Z,28.64
2022-08-05T01:08:41.247Z,28.62
2022-08-05T01:13:58.861Z,28.58
2022-08-05T01:18:56.242Z,28.54
2022-08-05T01:24:00.995Z,28.49
2022-08-05T01:29:23.001Z,28.44
2022-08-05T01:34:32.860Z,28.39
2022-08-05T01:39:46.104Z,28.35
2022-08-05T01:44:54.336Z,28.32
2022-08-05T01:50:01.796Z,28.31
2022-08-05T01:55:06.777Z,28.29
2022-08-05T02:00:11.872Z,28.27
2022-08-05T02:05:14.851Z,28.28
2022-08-05T02:10:17.334Z,28.27
2022-08-05T02:15:23.932Z,28.27
2022-08-05T02:20:27.854Z,28.26
2022-08-05T02:25:33.933Z,28.26
2022-08-05T02:30:56.667Z,28.26
2022-08-05T02:36:01.148Z,28.25
2022-08-05T02:41:06.437Z,28.22
2022-08-05T02:46:22.339Z,28.21
2022-08-05T02:52:02.707Z,28.20
2022-08-05T02:56:51.446Z,28.17
2022-08-05T03:01:57.992Z,28.14
2022-08-05T03:07:00.436Z,28.13
2022-08-05T03:12:01.961Z,28.07
2022-08-05T03:17:07.336Z,28.05
2022-08-05T03:22:16.243Z,28.02
2022-08-05T03:27:20.868Z,28.05
2022-08-05T03:32:22.382Z,28.12
2022-08-05T03:37:45.756Z,28.04
2022-08-05T03:42:52.271Z,27.86
2022-08-05T03:47:56.812Z,27.76
2022-08-05T03:55:34.462Z,27.67
2022-08-05T03:58:28.880Z,27.60
2022-08-05T04:03:35.793Z,27.55
2022-08-05T04:08:39.956Z,27.48
2022-08-05T04:13:50.269Z,27.43
2022-08-05T04:18:57.734Z,27.35
2022-08-05T04:24:06.201Z,27.30
2022-08-05T04:29:08.147Z,27.27
2022-08-05T04:34:31.800Z,27.21
2022-08-05T04:39:33.426Z,27.17
2022-08-05T04:44:36.927Z,27.14
2022-08-05T04:50:01.756Z,27.12
2022-08-05T04:55:00.404Z,27.09
2022-08-05T05:00:16.347Z,27.10
2022-08-05T05:05:28.109Z,27.11
2022-08-05T05:10:33.078Z,27.16
2022-08-05T05:15:56.211Z,27.20
2022-08-05T05:20:56.557Z,27.25
2022-08-05T05:25:59.913Z,27.30
2022-08-05T05:31:02.057Z,27.34
2022-08-05T05:36:07.192Z,27.39
2022-08-05T05:41:08.546Z,27.40
2022-08-05T05:46:17.492Z,27.42
2022-08-05T05:51:21.147Z,27.52
2022-08-05T05:56:31.335Z,27.62
2022-08-05T06:01:38.091Z,27.74
2022-08-05T06:06:42.329Z,27.79
2022-08-05T06:12:01.070Z,27.90
2022-08-05T06:17:22.446Z,28.10
2022-08-05T06:22:27.233Z,28.30
2022-08-05T06:28:11.340Z,28.38
2022-08-05T06:32:50.948Z,28.38
2022-08-05T06:37:58.310Z,28.47
2022-08-05T06:43:00.312Z,28.45
2022-08-05T06:48:44.083Z,28.51
2022-08-05T06:53:28.392Z,28.49
2022-08-05T06:58:36.597Z,28.39
2022-08-05T07:03:38.240Z,28.30
2022-08-05T07:08:39.671Z,28.24
2022-08-05T07:14:02.533Z,28.19
2022-08-05T07:19:04.061Z,28.01
2022-08-05T07:24:05.622Z,27.95
2022-08-05T07:29:12.800Z,27.88
2022-08-05T07:34:14.344Z,27.79
2022-08-05T07:39:24.353Z,27.84
2022-08-05T07:44:44.012Z,28.01
2022-08-05T07:49:54.233Z,28.13
2022-08-05T07:54:56.194Z,28.20
2022-08-05T07:59:57.606Z,28.17
2022-08-05T08:04:59.169Z,28.20
2022-08-05T08:10:01.020Z,28.20
2022-08-05T08:15:04.481Z,28.18
2022-08-05T08:20:22.756Z,28.19
2022-08-05T08:26:00.163Z,28.25
2022-08-05T08:30:50.231Z,28.31
2022-08-05T08:35:53.126Z,28.33
2022-08-05T08:41:09.760Z,28.32
2022-08-05T08:46:15.566Z,28.40
2022-08-05T08:52:01.655Z,28.54
2022-08-05T08:56:47.879Z,28.72
2022-08-05T09:01:57.533Z,28.86
2022-08-05T09:07:02.814Z,28.93
2022-08-05T09:12:20.410Z,28.96
2022-08-05T09:17:42.577Z,28.94
2022-08-05T09:23:05.071Z,29.10
2022-08-05T09:28:35.256Z,29.32
2022-08-05T09:33:49.837Z,29.55
2022-08-05T09:38:58.110Z,29.64
2022-08-05T09:43:59.605Z,29.79
2022-08-05T09:49:19.668Z,29.87
2022-08-05T09:54:30.930Z,29.98
2022-08-05T09:59:37.061Z,30.09
2022-08-05T10:04:41.089Z,30.15
2022-08-05T10:10:14.062Z,30.23
2022-08-05T10:15:27.107Z,30.28
2022-08-05T10:20:29.041Z,30.33
2022-08-05T10:25:31.353Z,30.42
2022-08-05T10:31:19.837Z,30.53
2022-08-05T10:35:59.763Z,30.62
2022-08-05T10:41:12.380Z,30.74
2022-08-05T10:46:17.456Z,30.89
2022-08-05T10:51:22.394Z,30.99
2022-08-05T10:56:28.462Z,31.20
2022-08-05T11:01:55.274Z,31.44
2022-08-05T11:07:04.692Z,31.64
2022-08-05T11:12:26.485Z,31.78
2022-08-05T11:17:58.034Z,31.75
2022-08-05T11:22:58.028Z,31.77
2022-08-05T11:28:09.720Z,31.95
2022-08-05T11:33:25.604Z,32.11
2022-08-05T11:38:51.859Z,32.20
2022-08-05T11:44:06.534Z,32.36
2022-08-05T11:49:15.156Z,32.45
2022-08-05T11:54:33.876Z,32.49
2022-08-05T11:59:42.056Z,32.51
2022-08-05T12:04:53.487Z,32.59
2022-08-05T12:10:09.017Z,32.71
2022-08-05T12:15:20.828Z,32.83
2022-08-05T12:20:41.445Z,33.01
2022-08-05T12:25:53.606Z,33.18
2022-08-05T12:31:02.287Z,33.25
2022-08-05T12:36:07.944Z,33.36
2022-08-05T12:41:13.132Z,33.54
2022-08-05T12:46:29.067Z,33.64
2022-08-05T12:52:12.602Z,33.76
2022-08-05T12:57:09.497Z,34.04
2022-08-05T13:02:12.540Z,34.16
2022-08-05T13:07:17.441Z,34.36
2022-08-05T13:12:50.703Z,34.47
2022-08-05T13:18:00.839Z,34.53
2022-08-05T13:23:02.747Z,34.84
2022-08-05T13:28:10.583Z,35.27
2022-08-05T13:33:14.277Z,35.35
2022-08-05T13:38:36.176Z,35.52
2022-08-05T13:43:45.165Z,35.58
2022-08-05T13:48:57.498Z,35.61
2022-08-05T13:54:03.743Z,35.45
2022-08-05T13:59:19.671Z,35.42
2022-08-05T14:04:41.065Z,35.45
2022-08-05T14:09:46.386Z,35.28
2022-08-05T14:14:49.252Z,35.09
2022-08-05T14:19:56.917Z,35.01
2022-08-05T14:25:06.100Z,34.79
2022-08-05T14:30:20.388Z,34.79
2022-08-05T14:35:23.392Z,34.83
2022-08-05T14:40:39.222Z,34.85
2022-08-05T14:45:40.583Z,34.83
2022-08-05T14:50:42.545Z,34.76
2022-08-05T14:55:44.091Z,34.68
2022-08-05T15:00:59.725Z,34.58
2022-08-05T15:06:13.088Z,34.42
2022-08-05T15:11:16.470Z,34.43
2022-08-05T15:16:17.907Z,34.46
2022-08-05T15:21:21.074Z,34.51
2022-08-05T15:26:32.081Z,34.53
2022-08-05T15:31:34.861Z,34.39
2022-08-05T15:36:36.447Z,34.18
2022-08-05T15:41:58.251Z,34.18
2022-08-05T15:47:01.387Z,34.24
2022-08-05T15:52:04.044Z,34.24
2022-08-05T15:57:15.625Z,34.27
2022-08-05T16:02:27.897Z,34.21
2022-08-05T16:07:30.474Z,34.13
2022-08-05T16:12:31.800Z,34.08
2022-08-05T16:17:33.381Z,33.97
2022-08-05T16:22:34.820Z,33.86
2022-08-05T16:28:00.134Z,33.78
2022-08-05T16:32:59.786Z,33.60
2022-08-05T16:38:23.748Z,33.44
2022-08-05T16:43:24.011Z,33.25
2022-08-05T16:48:33.946Z,33.00
2022-08-05T16:54:04.249Z,32.87
2022-08-05T16:58:59.126Z,32.73
2022-08-05T17:04:04.467Z,32.58
2022-08-05T17:09:05.813Z,32.27
2022-08-05T17:14:07.166Z,31.97
2022-08-05T17:19:14.635Z,32.07
2022-08-05T17:24:30.146Z,32.17
2022-08-05T17:29:41.056Z,32.00
2022-08-05T17:34:43.870Z,31.82
2022-08-05T17:39:48.433Z,31.40
2022-08-05T17:44:56.537Z,30.89
2022-08-05T17:50:03.971Z,30.33
2022-08-05T17:55:13.104Z,30.05
2022-08-05T18:00:14.721Z,29.63
2022-08-05T18:05:17.496Z,29.19
2022-08-05T18:10:20.972Z,28.77
2022-08-05T18:15:24.205Z,28.32
2022-08-05T18:20:29.347Z,27.83
2022-08-05T18:25:33.366Z,27.47
2022-08-05T18:30:39.142Z,27.16
2022-08-05T18:35:59.739Z,26.99
2022-08-05T18:41:56.683Z,26.75
2022-08-05T18:46:29.001Z,26.53
2022-08-05T18:52:06.355Z,26.34
2022-08-05T18:57:15.043Z,26.12
2022-08-05T19:02:27.769Z,25.93
2022-08-05T19:07:30.010Z,25.84
2022-08-05T19:12:48.221Z,25.71
2022-08-05T19:17:59.781Z,25.42
2022-08-05T19:24:03.642Z,25.05
2022-08-05T19:28:33.562Z,24.82
2022-08-05T19:33:36.863Z,24.67
2022-08-05T19:38:38.417Z,24.55
2022-08-05T19:44:05.476Z,24.43
2022-08-05T19:49:03.588Z,24.27
2022-08-05T19:54:21.827Z,24.09
2022-08-05T20:00:00.918Z,23.82
2022-08-05T20:04:51.039Z,23.61
2022-08-05T20:09:56.720Z,23.47
2022-08-05T20:14:59.462Z,23.34
2022-08-05T20:20:02.034Z,23.26
2022-08-05T20:25:05.961Z,23.14
2022-08-05T20:30:11.356Z,23.04
2022-08-05T20:35:12.898Z,22.88
2022-08-05T20:40:16.747Z,22.79
2022-08-05T20:51:16.911Z,22.71
2022-08-05T20:56:49.986Z,22.70
2022-08-05T21:08:02.583Z,22.63
2022-08-05T21:13:11.037Z,22.58
2022-08-05T21:18:17.514Z,22.55
2022-08-05T21:23:18.894Z,22.53
2022-08-05T21:28:23.999Z,22.44
2022-08-05T21:33:37.067Z,22.36
2022-08-05T21:38:41.526Z,22.23
2022-08-05T21:43:43.041Z,22.12
2022-08-05T21:49:07.082Z,22.02
2022-08-05T21:54:09.629Z,21.87
2022-08-05T21:59:24.049Z,21.79
2022-08-05T22:04:26.600Z,21.80
2022-08-05T22:09:46.008Z,21.75
2022-08-05T22:14:47.976Z,21.64
2022-08-05T22:20:00.333Z,21.66
2022-08-05T22:26:10.657Z,21.68
2022-08-05T22:30:56.482Z,21.67
2022-08-05T22:35:59.329Z,21.68
2022-08-05T22:41:01.282Z,21.66
2022-08-05T22:46:13.231Z,21.59
2022-08-05T22:51:16.127Z,21.19
2022-08-05T22:56:30.184Z,20.88
2022-08-05T23:02:05.095Z,20.68
2022-08-05T23:06:53.808Z,20.48
2022-08-05T23:11:55.199Z,20.33
2022-08-05T23:17:17.031Z,20.17
2022-08-05T23:22:27.390Z,20.01
2022-08-05T23:27:42.224Z,19.93
2022-08-05T23:32:45.295Z,19.85
2022-08-05T23:37:46.830Z,19.94
2022-08-05T23:42:53.713Z,20.05
2022-08-05T23:47:59.442Z,20.09
2022-08-05T23:53:04.635Z,20.11
2022-08-05T23:58:32.144Z,20.05
